Time;durP1;ratioP1;P1;durP2;ratioP2;P2;SDS_P1;SDS_P2;PMS_P1;PMS_P2;Temp;Humidity;BMP_temperature;BMP_pressure;BME280_temperature;BME280_humidity;BME280_pressure;Samples;Min_cycle;Max_cycle;Signal;HPM_P1;HPM_P2
2024/01/31 00:02:15;;;;;;;109.40;18.42;;;9.20;99.90;;;;;;5068084;28;20035;-49
2024/01/31 00:04:40;;;;;;;88.22;17.65;;;9.20;99.90;;;;;;5068103;28;20028;-49
2024/01/31 00:07:06;;;;;;;93.30;19.38;;;9.20;99.90;;;;;;5068231;28;20029;-50
2024/01/31 00:09:32;;;;;;;77.25;17.20;;;9.20;99.90;;;;;;5066614;28;20056;-49
2024/01/31 00:11:57;;;;;;;84.15;19.05;;;9.20;99.90;;;;;;5049995;28;20025;-50
2024/01/31 00:14:23;;;;;;;80.82;17.42;;;9.20;99.90;;;;;;5066588;28;20028;-49
2024/01/31 00:16:49;;;;;;;74.60;17.52;;;9.20;99.90;;;;;;5049715;28;20032;-49
2024/01/31 00:19:14;;;;;;;78.32;17.55;;;9.20;99.90;;;;;;5067812;28;20036;-49
2024/01/31 00:21:41;;;;;;;87.25;19.48;;;9.10;99.90;;;;;;5066435;28;20025;-49
2024/01/31 00:24:09;;;;;;;80.10;16.52;;;9.10;99.90;;;;;;5082806;28;20033;-49
2024/01/31 00:26:35;;;;;;;69.57;16.45;;;9.10;99.90;;;;;;5067669;28;20033;-49
2024/01/31 00:29:01;;;;;;;87.03;16.25;;;9.10;99.90;;;;;;5066316;28;20029;-49
2024/01/31 00:31:26;;;;;;;77.00;16.33;;;9.10;99.90;;;;;;5067571;28;20052;-49
2024/01/31 00:33:52;;;;;;;74.53;16.73;;;9.10;99.90;;;;;;5067496;28;20056;-49
2024/01/31 00:36:17;;;;;;;85.68;17.85;;;9.00;99.90;;;;;;5067660;28;20037;-49
2024/01/31 00:38:43;;;;;;;72.07;16.80;;;9.10;99.90;;;;;;5066837;28;20029;-49
2024/01/31 00:41:08;;;;;;;69.93;15.98;;;9.10;99.90;;;;;;5083082;28;20435;-49
2024/01/31 00:43:34;;;;;;;79.20;15.98;;;9.10;99.90;;;;;;5049151;28;20032;-49
2024/01/31 00:46:03;;;;;;;61.55;14.77;;;9.00;99.90;;;;;;5067018;28;20031;-49
2024/01/31 00:48:28;;;;;;;76.28;15.68;;;9.00;99.90;;;;;;5082668;28;20059;-49
2024/01/31 00:50:54;;;;;;;60.67;15.05;;;9.00;99.90;;;;;;5067124;28;20614;-49
2024/01/31 00:53:19;;;;;;;66.22;16.17;;;9.00;99.90;;;;;;5067132;28;20048;-49
2024/01/31 00:55:45;;;;;;;77.45;16.23;;;9.00;99.90;;;;;;5066981;28;20041;-49
2024/01/31 00:58:11;;;;;;;56.38;14.82;;;8.90;99.90;;;;;;5066836;28;20055;-50
2024/01/31 01:00:36;;;;;;;76.25;15.63;;;8.90;99.90;;;;;;5066992;28;20493;-49
2024/01/31 01:03:02;;;;;;;70.00;14.25;;;8.90;99.90;;;;;;5065774;28;20048;-49
2024/01/31 01:05:27;;;;;;;78.03;15.80;;;8.90;99.90;;;;;;5066842;28;20473;-49
2024/01/31 01:07:53;;;;;;;61.85;16.00;;;8.90;99.90;;;;;;5067000;28;20039;-49
2024/01/31 01:10:19;;;;;;;58.80;14.05;;;8.90;99.90;;;;;;5066884;28;20432;-49
2024/01/31 01:12:45;;;;;;;61.00;14.60;;;8.80;99.90;;;;;;5065007;28;20459;-49
2024/01/31 01:15:11;;;;;;;54.92;14.32;;;8.80;99.90;;;;;;5065516;28;20040;-50
2024/01/31 01:17:37;;;;;;;59.00;14.27;;;8.80;99.90;;;;;;5065515;28;20181;-49
2024/01/31 01:20:03;;;;;;;56.58;13.77;;;8.80;99.90;;;;;;5066984;28;20033;-46
2024/01/31 01:22:28;;;;;;;50.97;14.27;;;8.80;99.90;;;;;;5066577;28;20354;-49
2024/01/31 01:24:54;;;;;;;51.83;12.98;;;8.80;99.90;;;;;;5066670;28;20123;-49
2024/01/31 01:27:20;;;;;;;62.72;13.25;;;8.80;99.90;;;;;;5065289;28;20029;-49
2024/01/31 01:29:45;;;;;;;55.88;14.07;;;8.70;99.90;;;;;;5065471;28;20473;-49
2024/01/31 01:32:11;;;;;;;63.47;15.30;;;8.70;99.90;;;;;;5065253;28;20049;-49
2024/01/31 01:34:40;;;;;;;52.08;13.60;;;8.70;99.90;;;;;;5066648;28;20052;-49
2024/01/31 01:37:05;;;;;;;63.17;12.90;;;8.70;99.90;;;;;;5064910;28;20040;-49
2024/01/31 01:39:31;;;;;;;44.80;12.70;;;8.70;99.90;;;;;;5065055;28;20469;-49
2024/01/31 01:41:57;;;;;;;45.03;12.00;;;8.70;99.90;;;;;;5066398;28;20100;-49
2024/01/31 01:44:22;;;;;;;41.78;12.00;;;8.70;99.90;;;;;;5064649;28;20029;-49
2024/01/31 01:46:48;;;;;;;44.30;12.48;;;8.70;99.90;;;;;;5066354;28;20029;-49
2024/01/31 01:49:13;;;;;;;47.55;12.02;;;8.60;99.90;;;;;;5065160;28;20051;-49
2024/01/31 01:51:39;;;;;;;50.72;12.98;;;8.60;99.90;;;;;;5081805;28;20048;-49
2024/01/31 01:54:05;;;;;;;49.00;12.05;;;8.60;99.90;;;;;;5081787;28;20040;-49
2024/01/31 01:56:30;;;;;;;49.05;13.43;;;8.60;99.90;;;;;;5081865;28;20025;-49
2024/01/31 01:58:56;;;;;;;49.08;12.07;;;8.60;99.90;;;;;;5066176;28;20033;-49
2024/01/31 02:01:21;;;;;;;45.95;12.05;;;8.60;99.90;;;;;;5081734;28;20515;-49
2024/01/31 02:03:47;;;;;;;46.80;11.95;;;8.60;99.90;;;;;;5065088;28;20049;-49
2024/01/31 02:06:13;;;;;;;44.47;13.02;;;8.60;99.90;;;;;;5064953;28;20033;-49
2024/01/31 02:08:38;;;;;;;39.78;10.90;;;8.60;99.90;;;;;;5081720;28;20112;-49
2024/01/31 02:11:04;;;;;;;35.53;13.30;;;8.60;99.90;;;;;;5066134;28;20041;-49
2024/01/31 02:13:30;;;;;;;37.60;11.13;;;8.50;99.90;;;;;;5081489;28;20456;-49
2024/01/31 02:15:56;;;;;;;46.08;13.02;;;8.50;99.90;;;;;;5066054;28;20037;-50
2024/01/31 02:18:22;;;;;;;43.33;11.65;;;8.50;99.90;;;;;;5064687;28;20046;-48
2024/01/31 02:20:48;;;;;;;50.10;11.80;;;8.50;99.90;;;;;;5064819;28;20026;-49
2024/01/31 02:23:13;;;;;;;40.55;11.93;;;8.50;99.90;;;;;;5066102;28;20047;-49
2024/01/31 02:25:39;;;;;;;39.40;11.48;;;8.50;99.90;;;;;;5064610;28;20025;-49
2024/01/31 02:28:05;;;;;;;35.42;10.93;;;8.50;99.90;;;;;;5064701;28;20036;-49
2024/01/31 02:30:30;;;;;;;39.17;11.43;;;8.50;99.90;;;;;;5066137;28;20043;-49
2024/01/31 02:32:56;;;;;;;40.42;11.45;;;8.50;99.90;;;;;;5064492;28;20032;-50
2024/01/31 02:35:23;;;;;;;39.33;11.32;;;8.40;99.90;;;;;;5064352;28;20033;-49
2024/01/31 02:37:49;;;;;;;42.60;11.35;;;8.40;99.90;;;;;;5047813;28;20036;-48
2024/01/31 02:40:15;;;;;;;33.58;11.13;;;8.40;99.90;;;;;;5081427;28;20029;-49
2024/01/31 02:42:41;;;;;;;43.92;11.63;;;8.40;99.90;;;;;;5065804;28;20024;-49
2024/01/31 02:45:07;;;;;;;37.70;11.30;;;8.40;99.90;;;;;;5065577;28;20025;-49
2024/01/31 02:47:35;;;;;;;46.00;12.10;;;8.40;99.90;;;;;;5065546;28;20056;-49
2024/01/31 02:50:01;;;;;;;39.05;11.38;;;8.30;99.90;;;;;;5048154;28;20025;-50
2024/01/31 02:52:27;;;;;;;39.95;10.50;;;8.30;99.90;;;;;;5064393;28;20392;-49
2024/01/31 02:54:52;;;;;;;34.45;11.13;;;8.40;99.90;;;;;;5064497;28;20037;-49
2024/01/31 02:57:19;;;;;;;35.20;11.25;;;8.30;99.90;;;;;;5066835;28;20037;-49
2024/01/31 02:59:44;;;;;;;35.47;10.77;;;8.30;99.90;;;;;;5069351;28;20529;-49
2024/01/31 03:02:10;;;;;;;29.65;10.20;;;8.30;99.90;;;;;;5068104;28;20028;-49
2024/01/31 03:04:35;;;;;;;42.92;10.75;;;8.30;99.90;;;;;;5067648;28;20032;-49
2024/01/31 03:07:01;;;;;;;34.83;11.13;;;8.30;99.90;;;;;;5068086;28;20021;-49
2024/01/31 03:09:27;;;;;;;38.30;10.13;;;8.30;99.90;;;;;;5069268;28;20029;-49
2024/01/31 03:11:53;;;;;;;36.10;11.25;;;8.20;99.90;;;;;;5067660;28;20040;-49
2024/01/31 03:14:19;;;;;;;27.20;9.60;;;8.30;99.90;;;;;;5067775;28;20029;-49
2024/01/31 03:16:45;;;;;;;35.72;9.70;;;8.30;99.90;;;;;;5067948;28;20033;-49
2024/01/31 03:19:10;;;;;;;32.15;9.95;;;8.30;99.90;;;;;;5069484;28;20029;-49
2024/01/31 03:21:36;;;;;;;30.73;9.45;;;8.30;99.90;;;;;;5067990;28;20025;-49
2024/01/31 03:24:02;;;;;;;30.38;10.18;;;8.20;99.90;;;;;;5069508;28;20025;-49
2024/01/31 03:26:27;;;;;;;24.30;9.73;;;8.20;99.90;;;;;;5067602;28;20028;-50
2024/01/31 03:28:54;;;;;;;30.27;9.80;;;8.20;99.90;;;;;;5067458;28;20488;-49
2024/01/31 03:31:19;;;;;;;30.63;9.68;;;8.20;99.90;;;;;;5068807;28;20029;-49
2024/01/31 03:33:45;;;;;;;30.80;8.93;;;8.20;99.90;;;;;;5067425;28;20025;-49
2024/01/31 03:36:11;;;;;;;37.78;10.15;;;8.20;99.90;;;;;;5067284;28;20083;-50
2024/01/31 03:38:37;;;;;;;26.13;8.98;;;8.20;99.90;;;;;;5068490;28;20032;-49
2024/01/31 03:41:09;;;;;;;26.05;9.10;;;8.20;99.90;;;;;;5067232;28;20037;-49
2024/01/31 03:43:34;;;;;;;26.73;9.32;;;8.20;99.90;;;;;;5067277;28;20131;-49
2024/01/31 03:46:00;;;;;;;31.23;9.02;;;8.10;99.90;;;;;;5068491;28;20029;-49
2024/01/31 03:48:29;;;;;;;25.90;9.18;;;8.10;99.90;;;;;;5066996;28;20037;-49
2024/01/31 03:50:54;;;;;;;25.63;9.45;;;8.10;99.90;;;;;;5068421;28;20400;-49
2024/01/31 03:53:20;;;;;;;25.20;8.95;;;8.10;99.90;;;;;;5067220;28;20024;-49
2024/01/31 03:55:46;;;;;;;27.88;8.50;;;8.10;99.90;;;;;;5068247;28;20380;-49
2024/01/31 03:58:11;;;;;;;21.23;9.60;;;8.10;99.90;;;;;;5066943;28;20041;-49
2024/01/31 04:00:37;;;;;;;27.30;9.60;;;8.10;99.90;;;;;;5066744;28;20033;-49
2024/01/31 04:03:02;;;;;;;21.25;8.63;;;8.10;99.90;;;;;;5068270;28;20094;-49
2024/01/31 04:05:28;;;;;;;28.75;9.30;;;8.10;99.90;;;;;;5068117;28;20100;-49
2024/01/31 04:07:54;;;;;;;22.42;8.88;;;8.10;99.90;;;;;;5067635;28;20068;-49
2024/01/31 04:10:20;;;;;;;25.05;8.38;;;8.10;99.90;;;;;;5066845;28;20025;-49
2024/01/31 04:12:46;;;;;;;27.58;8.60;;;8.10;99.90;;;;;;5067852;28;20067;-49
2024/01/31 04:15:11;;;;;;;27.70;9.23;;;8.10;99.90;;;;;;5066688;28;20025;-49
2024/01/31 04:17:37;;;;;;;24.55;8.43;;;8.10;99.90;;;;;;5066617;28;20102;-49
2024/01/31 04:20:03;;;;;;;28.65;9.55;;;8.10;99.90;;;;;;5067449;28;20080;-49
2024/01/31 04:22:28;;;;;;;31.30;8.60;;;8.10;99.90;;;;;;5067673;28;20021;-50
2024/01/31 04:24:54;;;;;;;33.40;8.93;;;8.10;99.90;;;;;;5067695;28;20028;-49
2024/01/31 04:27:19;;;;;;;23.58;8.50;;;8.00;99.90;;;;;;5066173;28;20032;-49
2024/01/31 04:29:45;;;;;;;23.02;8.23;;;8.10;99.90;;;;;;5066366;28;20528;-49
2024/01/31 04:32:11;;;;;;;17.55;7.80;;;8.10;99.90;;;;;;5067678;28;20021;-49
2024/01/31 04:34:39;;;;;;;24.13;8.70;;;8.00;99.90;;;;;;5067603;28;20041;-49
2024/01/31 04:37:05;;;;;;;22.35;8.35;;;8.00;99.90;;;;;;5065924;28;20041;-49
2024/01/31 04:39:30;;;;;;;21.80;8.50;;;8.00;99.90;;;;;;5066125;28;20031;-49
2024/01/31 04:41:56;;;;;;;19.98;8.63;;;8.00;99.90;;;;;;5049318;28;20061;-49
2024/01/31 04:44:21;;;;;;;20.10;8.23;;;8.00;99.90;;;;;;5067258;28;20021;-49
2024/01/31 04:46:47;;;;;;;25.73;8.88;;;8.00;99.90;;;;;;5067371;28;20051;-49
2024/01/31 04:49:13;;;;;;;24.27;8.48;;;8.00;99.90;;;;;;5065965;28;20032;-49
2024/01/31 04:51:41;;;;;;;23.45;8.20;;;7.90;99.90;;;;;;5065832;28;20362;-49
2024/01/31 04:54:07;;;;;;;25.58;8.77;;;7.90;99.90;;;;;;5067281;28;20045;-49
2024/01/31 04:56:33;;;;;;;20.77;8.07;;;7.90;99.90;;;;;;5065941;28;20048;-49
2024/01/31 04:58:59;;;;;;;20.60;8.38;;;7.90;99.90;;;;;;5065857;28;20029;-50
2024/01/31 05:01:25;;;;;;;23.60;8.82;;;7.90;99.90;;;;;;5067052;28;20101;-49
2024/01/31 05:03:50;;;;;;;19.65;8.60;;;7.90;99.90;;;;;;5065772;28;20029;-49
2024/01/31 05:06:16;;;;;;;18.17;7.35;;;7.90;99.90;;;;;;5066885;28;20029;-50
2024/01/31 05:08:41;;;;;;;19.90;8.10;;;7.90;99.90;;;;;;5065665;28;20465;-49
2024/01/31 05:11:07;;;;;;;15.80;8.38;;;7.90;99.90;;;;;;5065756;28;20234;-49
2024/01/31 05:13:32;;;;;;;15.52;7.68;;;7.80;99.90;;;;;;5065460;28;20028;-49
2024/01/31 05:15:58;;;;;;;20.38;7.88;;;7.90;99.90;;;;;;5066701;28;20041;-49
2024/01/31 05:18:23;;;;;;;18.88;7.60;;;7.90;99.90;;;;;;5066786;28;20084;-49
2024/01/31 05:20:49;;;;;;;21.98;8.05;;;7.80;99.90;;;;;;5066060;28;20492;-49
2024/01/31 05:23:15;;;;;;;15.35;7.32;;;7.80;99.90;;;;;;5065509;28;20385;-49
2024/01/31 05:25:40;;;;;;;23.48;8.02;;;7.80;99.90;;;;;;5065328;28;20029;-49
2024/01/31 05:28:06;;;;;;;17.10;8.15;;;7.80;99.90;;;;;;5066336;28;20470;-49
2024/01/31 05:30:31;;;;;;;20.95;8.10;;;7.80;99.90;;;;;;5065982;28;20032;-49
2024/01/31 05:32:57;;;;;;;15.63;6.60;;;7.80;99.90;;;;;;5065077;28;20033;-49
2024/01/31 05:35:22;;;;;;;16.05;8.02;;;7.80;99.90;;;;;;5065079;28;20079;-50
2024/01/31 05:37:48;;;;;;;27.85;8.02;;;7.80;99.90;;;;;;5064967;28;20033;-50
2024/01/31 05:40:16;;;;;;;20.60;7.50;;;7.80;99.90;;;;;;5065169;28;20065;-49
2024/01/31 05:42:45;;;;;;;28.30;7.90;;;7.80;99.90;;;;;;5065482;28;20071;-49
2024/01/31 05:45:10;;;;;;;24.40;8.23;;;7.80;99.90;;;;;;5066230;28;20029;-49
2024/01/31 05:47:36;;;;;;;40.03;9.57;;;7.80;99.90;;;;;;5064969;28;20032;-49
2024/01/31 05:50:02;;;;;;;38.20;9.38;;;7.80;99.90;;;;;;5066154;28;20470;-49
2024/01/31 05:52:27;;;;;;;38.13;9.52;;;7.80;99.90;;;;;;5066221;28;20029;-49
2024/01/31 05:54:53;;;;;;;25.98;8.80;;;7.80;99.90;;;;;;5066378;28;20082;-49
2024/01/31 05:57:18;;;;;;;30.48;8.80;;;7.80;99.90;;;;;;5064808;28;20029;-49
2024/01/31 05:59:44;;;;;;;37.15;9.20;;;7.70;99.90;;;;;;5066992;28;20047;-49
2024/01/31 06:02:09;;;;;;;39.85;9.18;;;7.70;99.90;;;;;;5065463;28;20029;-49
2024/01/31 06:04:35;;;;;;;34.40;9.10;;;7.70;99.90;;;;;;5065856;28;20044;-49
2024/01/31 06:07:01;;;;;;;37.28;8.27;;;7.70;99.90;;;;;;5066059;28;20033;-49
2024/01/31 06:09:26;;;;;;;43.25;9.93;;;7.70;99.90;;;;;;5065006;28;20030;-49
2024/01/31 06:11:52;;;;;;;66.80;12.40;;;7.70;99.90;;;;;;5065932;28;20051;-49
2024/01/31 06:14:17;;;;;;;68.75;12.43;;;7.70;99.90;;;;;;5064938;28;20025;-49
2024/01/31 06:16:43;;;;;;;68.65;11.18;;;7.70;99.90;;;;;;5064981;28;20032;-49
2024/01/31 06:19:08;;;;;;;71.15;12.38;;;7.70;99.90;;;;;;5064383;28;20021;-49
2024/01/31 06:21:34;;;;;;;43.25;10.32;;;7.70;99.90;;;;;;5065656;28;20051;-49
2024/01/31 06:24:00;;;;;;;49.50;9.95;;;7.70;99.90;;;;;;5065741;28;20060;-49
2024/01/31 06:26:28;;;;;;;39.65;9.93;;;7.60;99.90;;;;;;5064514;28;20527;-49
2024/01/31 06:28:54;;;;;;;41.55;10.52;;;7.70;99.90;;;;;;5065913;28;20112;-49
2024/01/31 06:31:27;;;;;;;37.92;10.02;;;7.60;99.90;;;;;;5066404;28;20408;-49
2024/01/31 06:33:53;;;;;;;35.03;9.77;;;7.60;99.90;;;;;;5069609;28;20089;-49
2024/01/31 06:36:22;;;;;;;41.20;10.82;;;7.60;99.90;;;;;;5068153;28;20075;-49
2024/01/31 06:38:47;;;;;;;43.05;10.35;;;7.60;99.90;;;;;;5069378;28;20095;-49
2024/01/31 06:41:14;;;;;;;37.28;9.50;;;7.60;99.90;;;;;;5068469;28;20024;-49
2024/01/31 06:43:40;;;;;;;48.50;10.45;;;7.60;99.90;;;;;;5068254;28;20021;-49
2024/01/31 06:46:05;;;;;;;43.53;9.18;;;7.60;99.90;;;;;;5069280;28;20029;-49
2024/01/31 06:48:31;;;;;;;53.92;10.57;;;7.60;99.90;;;;;;5068234;28;20493;-49
2024/01/31 06:50:56;;;;;;;43.67;10.90;;;7.60;99.90;;;;;;5051558;28;20041;-49
2024/01/31 06:53:22;;;;;;;42.63;10.15;;;7.60;99.90;;;;;;5068126;28;20037;-49
2024/01/31 06:55:48;;;;;;;34.72;9.45;;;7.60;99.90;;;;;;5069241;28;20025;-49
2024/01/31 06:58:13;;;;;;;32.72;8.95;;;7.50;99.90;;;;;;5067877;28;20033;-49
2024/01/31 07:00:39;;;;;;;35.05;9.38;;;7.50;99.90;;;;;;5067807;28;20024;-49
2024/01/31 07:03:04;;;;;;;43.63;9.35;;;7.50;99.90;;;;;;5068854;28;20025;-49
2024/01/31 07:05:30;;;;;;;36.17;9.43;;;7.50;99.90;;;;;;5051090;28;20040;-49
2024/01/31 07:07:56;;;;;;;29.30;8.85;;;7.50;99.90;;;;;;5067690;28;20033;-49
2024/01/31 07:10:21;;;;;;;32.38;8.93;;;7.50;99.90;;;;;;5067690;28;20104;-49
2024/01/31 07:12:47;;;;;;;40.75;10.18;;;7.50;99.90;;;;;;5067820;28;20534;-49
2024/01/31 07:15:14;;;;;;;31.65;8.90;;;7.50;99.90;;;;;;5068827;28;20512;-49
2024/01/31 07:17:39;;;;;;;34.63;9.60;;;7.50;99.90;;;;;;5066268;28;20033;-49
2024/01/31 07:20:08;;;;;;;35.13;9.07;;;7.50;99.90;;;;;;5067466;28;20519;-49
2024/01/31 07:22:33;;;;;;;31.83;8.52;;;7.50;99.90;;;;;;5084187;28;20035;-49
2024/01/31 07:24:59;;;;;;;26.20;9.23;;;7.50;99.90;;;;;;5069046;28;20029;-49
2024/01/31 07:27:25;;;;;;;34.13;9.18;;;7.40;99.90;;;;;;5068324;28;20064;-49
2024/01/31 07:29:50;;;;;;;34.45;9.65;;;7.50;99.90;;;;;;5067463;28;20056;-49
2024/01/31 07:32:16;;;;;;;34.75;10.20;;;7.40;99.90;;;;;;5068241;28;20059;-49
2024/01/31 07:34:41;;;;;;;25.88;8.82;;;7.40;99.90;;;;;;5066306;28;20033;-49
2024/01/31 07:37:08;;;;;;;37.53;10.55;;;7.40;99.90;;;;;;5068160;28;20037;-49
2024/01/31 07:39:33;;;;;;;40.95;10.85;;;7.40;99.90;;;;;;5068242;28;20036;-49
2024/01/31 07:41:59;;;;;;;29.35;10.07;;;7.40;99.90;;;;;;5068163;28;20045;-49
2024/01/31 07:44:24;;;;;;;29.23;9.93;;;7.40;99.90;;;;;;5066668;28;20029;-49
2024/01/31 07:46:50;;;;;;;35.28;9.60;;;7.40;99.90;;;;;;5067103;28;20033;-49
2024/01/31 07:49:15;;;;;;;24.63;9.13;;;7.40;99.90;;;;;;5068587;28;20052;-49
2024/01/31 07:51:42;;;;;;;29.75;9.27;;;7.40;99.90;;;;;;5068465;28;20037;-49
2024/01/31 07:54:07;;;;;;;31.38;9.27;;;7.40;99.90;;;;;;5067851;28;20063;-49
2024/01/31 07:56:33;;;;;;;26.20;9.80;;;7.30;99.90;;;;;;5066882;28;20033;-49
2024/01/31 07:58:59;;;;;;;21.20;8.75;;;7.40;99.90;;;;;;5067989;28;20056;-49
2024/01/31 08:01:24;;;;;;;28.95;9.60;;;7.40;99.90;;;;;;5068119;28;20031;-49
2024/01/31 08:03:50;;;;;;;28.83;8.60;;;7.40;99.90;;;;;;5066631;28;20025;-48
2024/01/31 08:06:15;;;;;;;33.13;9.77;;;7.40;99.90;;;;;;5066796;28;20033;-49
2024/01/31 08:08:45;;;;;;;24.92;8.65;;;7.40;99.90;;;;;;5068148;28;20028;-49
2024/01/31 08:11:13;;;;;;;23.77;8.23;;;7.40;99.90;;;;;;5066995;28;20025;-59
2024/01/31 08:13:39;;;;;;;23.52;8.38;;;7.40;99.90;;;;;;5067651;28;20029;-59
2024/01/31 08:16:10;;;;;;;22.40;8.27;;;7.40;99.90;;;;;;5066370;28;20124;-59
2024/01/31 08:18:36;;;;;;;25.33;9.82;;;7.40;99.90;;;;;;5067778;28;20029;-58
2024/01/31 08:21:02;;;;;;;19.27;7.43;;;7.40;99.90;;;;;;5066573;28;20186;-59
2024/01/31 08:23:27;;;;;;;19.30;9.00;;;7.40;99.90;;;;;;5066670;28;20025;-59
2024/01/31 08:25:53;;;;;;;28.10;8.40;;;7.40;99.90;;;;;;5067639;28;20029;-59
2024/01/31 08:28:18;;;;;;;24.80;8.63;;;7.40;99.90;;;;;;5067525;28;20029;-59
2024/01/31 08:30:44;;;;;;;18.90;8.23;;;7.40;99.90;;;;;;5066372;28;20029;-59
2024/01/31 08:33:10;;;;;;;26.83;9.05;;;7.40;99.90;;;;;;5065878;28;20025;-59
2024/01/31 08:35:35;;;;;;;19.27;8.60;;;7.40;99.90;;;;;;5066189;28;20079;-59
2024/01/31 08:38:01;;;;;;;22.38;7.55;;;7.40;99.90;;;;;;5049444;28;20028;-58
2024/01/31 08:40:26;;;;;;;25.25;9.40;;;7.40;99.90;;;;;;5066551;28;20426;-59
2024/01/31 08:42:57;;;;;;;212.48;22.27;;;7.40;99.90;;;;;;5065772;28;20055;-59
2024/01/31 08:45:26;;;;;;;86.65;11.65;;;7.50;99.90;;;;;;5065884;28;20025;-59
2024/01/31 08:47:51;;;;;;;21.13;8.48;;;7.50;99.90;;;;;;5066092;28;20229;-59
2024/01/31 08:50:17;;;;;;;24.92;8.98;;;7.50;99.90;;;;;;5066048;28;20033;-59
2024/01/31 08:52:42;;;;;;;31.23;9.65;;;7.50;99.90;;;;;;5065745;28;20037;-59
2024/01/31 08:55:13;;;;;;;33.35;10.45;;;7.50;99.90;;;;;;5064986;28;20061;-58
2024/01/31 08:57:39;;;;;;;33.80;9.65;;;7.50;99.90;;;;;;5065764;28;20029;-59
2024/01/31 09:00:05;;;;;;;42.50;9.57;;;7.50;99.90;;;;;;5066083;28;20051;-59
2024/01/31 09:02:31;;;;;;;25.67;8.98;;;7.60;99.90;;;;;;5064202;28;20017;-59
2024/01/31 09:04:59;;;;;;;30.83;8.77;;;7.60;99.90;;;;;;5065688;28;20055;-59
2024/01/31 09:07:24;;;;;;;43.08;9.82;;;7.60;99.90;;;;;;5065015;28;20051;-59
2024/01/31 09:09:50;;;;;;;34.35;10.15;;;7.60;99.90;;;;;;5063394;28;20037;-59
2024/01/31 09:12:16;;;;;;;33.97;9.57;;;7.60;99.90;;;;;;5073370;28;20549;-59
2024/01/31 09:14:42;;;;;;;35.97;10.60;;;7.60;99.90;;;;;;5064175;28;20473;-59
2024/01/31 09:17:07;;;;;;;40.13;10.32;;;7.60;99.90;;;;;;5063752;28;20029;-59
2024/01/31 09:19:33;;;;;;;41.35;10.25;;;7.70;99.90;;;;;;5067931;28;20056;-58
2024/01/31 09:21:58;;;;;;;184.80;23.17;;;7.70;99.90;;;;;;5065768;28;20025;-60
2024/01/31 09:24:24;;;;;;;176.70;20.17;;;7.70;99.90;;;;;;5074819;28;20032;-61
2024/01/31 09:26:50;;;;;;;67.75;13.57;;;7.70;99.90;;;;;;5064013;28;20021;-59
2024/01/31 09:29:16;;;;;;;192.02;19.05;;;7.70;99.90;;;;;;5029422;28;20033;-58
2024/01/31 09:31:41;;;;;;;57.40;10.75;;;7.80;99.90;;;;;;5063923;28;20046;-58
2024/01/31 09:34:08;;;;;;;47.10;10.15;;;7.80;99.90;;;;;;5064921;28;20079;-58
2024/01/31 09:36:33;;;;;;;62.13;11.63;;;7.90;99.90;;;;;;5068459;28;20492;-58
2024/01/31 09:38:59;;;;;;;47.15;10.00;;;7.80;99.90;;;;;;5064350;28;20029;-58
2024/01/31 09:41:26;;;;;;;49.05;11.35;;;7.80;99.90;;;;;;5064678;28;20032;-58
2024/01/31 09:43:53;;;;;;;38.17;10.20;;;7.90;99.90;;;;;;5081344;28;20024;-58
2024/01/31 09:46:18;;;;;;;55.42;12.73;;;7.90;99.90;;;;;;5075633;28;20084;-58
2024/01/31 09:48:44;;;;;;;46.83;10.65;;;7.90;99.90;;;;;;5065784;28;20036;-58
2024/01/31 09:51:10;;;;;;;41.30;9.88;;;7.90;99.90;;;;;;5062843;28;20560;-58
2024/01/31 09:53:38;;;;;;;36.45;10.98;;;7.90;99.90;;;;;;5062659;28;20032;-58
2024/01/31 09:56:07;;;;;;;57.53;11.32;;;8.00;99.90;;;;;;5062756;28;20036;-58
2024/01/31 09:58:33;;;;;;;48.97;11.25;;;8.00;99.90;;;;;;5062732;28;20025;-58
2024/01/31 10:01:01;;;;;;;41.97;10.00;;;8.00;99.90;;;;;;5063661;28;20025;-58
2024/01/31 10:03:27;;;;;;;42.53;10.57;;;8.00;99.90;;;;;;5046901;28;20017;-58
2024/01/31 10:05:52;;;;;;;56.22;11.32;;;8.10;99.90;;;;;;5050498;28;20025;-58
2024/01/31 10:08:18;;;;;;;59.55;12.10;;;8.10;99.90;;;;;;5088876;28;20496;-58
2024/01/31 10:10:43;;;;;;;49.38;11.57;;;8.10;99.90;;;;;;5088364;28;20075;-58
2024/01/31 10:13:09;;;;;;;56.17;11.15;;;8.10;99.90;;;;;;5068275;28;20029;-58
2024/01/31 10:15:35;;;;;;;62.08;10.25;;;8.20;99.90;;;;;;5068139;28;20056;-58
2024/01/31 10:18:01;;;;;;;44.47;10.95;;;8.20;99.90;;;;;;5069587;28;20108;-58
2024/01/31 10:20:27;;;;;;;39.58;11.35;;;8.20;99.90;;;;;;5067953;28;20029;-58
2024/01/31 10:22:53;;;;;;;68.97;12.00;;;8.20;99.90;;;;;;5068847;28;20151;-58
2024/01/31 10:25:18;;;;;;;55.88;12.02;;;8.30;99.90;;;;;;5067784;28;20029;-58
2024/01/31 10:27:47;;;;;;;86.22;13.93;;;8.30;99.90;;;;;;5081516;28;20053;-58
2024/01/31 10:30:13;;;;;;;71.00;12.70;;;8.30;99.90;;;;;;5069529;28;20041;-58
2024/01/31 10:32:40;;;;;;;82.53;14.23;;;8.30;99.90;;;;;;5048119;28;20060;-58
2024/01/31 10:35:06;;;;;;;81.20;14.15;;;8.40;99.90;;;;;;5039677;28;20037;-58
2024/01/31 10:37:32;;;;;;;76.28;12.85;;;8.40;99.90;;;;;;5068022;28;20033;-58
2024/01/31 10:40:01;;;;;;;78.88;14.73;;;8.40;99.90;;;;;;5068215;28;20089;-58
2024/01/31 10:42:26;;;;;;;100.65;14.48;;;8.50;99.90;;;;;;5051819;28;20017;-58
2024/01/31 10:44:53;;;;;;;87.07;15.65;;;8.50;99.90;;;;;;5069059;28;20029;-58
2024/01/31 10:47:18;;;;;;;83.95;13.75;;;8.50;99.90;;;;;;5067967;28;20028;-57
2024/01/31 10:49:44;;;;;;;84.65;14.48;;;8.50;99.90;;;;;;5077719;28;20029;-58
2024/01/31 10:52:11;;;;;;;63.92;13.52;;;8.60;99.90;;;;;;5084567;28;20028;-58
2024/01/31 10:54:39;;;;;;;69.07;12.95;;;8.60;99.90;;;;;;5071303;28;20033;-58
2024/01/31 10:57:05;;;;;;;76.63;14.35;;;8.60;99.90;;;;;;5051555;28;20053;-58
2024/01/31 10:59:36;;;;;;;69.93;13.48;;;8.70;99.90;;;;;;5070945;28;20059;-57
2024/01/31 11:02:01;;;;;;;107.18;15.20;;;8.70;99.90;;;;;;5080172;28;20124;-58
2024/01/31 11:04:27;;;;;;;90.60;15.60;;;8.70;99.90;;;;;;5087649;28;20032;-58
2024/01/31 11:06:53;;;;;;;67.60;15.38;;;8.70;99.90;;;;;;5083018;28;20060;-58
2024/01/31 11:09:22;;;;;;;88.90;14.77;;;8.70;99.90;;;;;;5051765;28;20036;-58
2024/01/31 11:12:03;;;;;;;103.13;15.02;;;8.80;99.90;;;;;;5078722;28;20047;-58
2024/01/31 11:14:29;;;;;;;557.95;51.78;;;8.80;99.90;;;;;;5048306;28;20029;-58
2024/01/31 11:17:16;;;;;;;96.60;16.55;;;8.80;99.90;;;;;;5046304;28;20030;-58
2024/01/31 11:19:49;;;;;;;84.50;14.30;;;8.80;99.90;;;;;;5043754;28;20037;-60
2024/01/31 11:22:15;;;;;;;78.53;14.68;;;8.80;99.90;;;;;;5047763;28;20112;-59
2024/01/31 11:24:47;;;;;;;50.03;12.50;;;8.80;99.90;;;;;;5080812;28;20025;-60
2024/01/31 11:27:17;;;;;;;57.55;12.75;;;8.90;99.90;;;;;;5049184;28;20033;-57
2024/01/31 11:29:43;;;;;;;48.53;12.48;;;8.90;99.90;;;;;;5063774;28;20175;-57
2024/01/31 11:32:09;;;;;;;55.80;13.45;;;8.90;99.90;;;;;;5080699;28;20088;-57
2024/01/31 11:34:36;;;;;;;58.05;13.45;;;8.90;99.90;;;;;;5048466;28;20029;-57
2024/01/31 11:37:01;;;;;;;64.65;12.93;;;8.90;99.90;;;;;;5048129;28;20037;-57
2024/01/31 11:39:27;;;;;;;70.25;13.48;;;8.90;99.90;;;;;;5048197;28;20072;-57
2024/01/31 11:41:54;;;;;;;76.32;13.68;;;8.90;99.90;;;;;;5047002;28;20060;-58
2024/01/31 11:44:19;;;;;;;56.10;13.63;;;8.90;99.90;;;;;;5063535;28;20021;-57
2024/01/31 11:46:45;;;;;;;61.17;13.98;;;9.00;99.90;;;;;;5063662;28;20466;-58
2024/01/31 11:49:11;;;;;;;69.85;12.95;;;9.00;99.90;;;;;;5048380;28;20091;-58
2024/01/31 11:51:37;;;;;;;95.15;15.13;;;9.00;99.90;;;;;;5063541;28;20120;-58
2024/01/31 11:54:02;;;;;;;77.22;14.20;;;9.00;99.90;;;;;;5046978;28;20108;-58
2024/01/31 11:56:28;;;;;;;85.18;16.00;;;9.00;99.90;;;;;;5079940;28;20041;-58
2024/01/31 11:58:54;;;;;;;59.80;13.95;;;9.00;99.90;;;;;;5080083;28;20056;-57
2024/01/31 12:01:19;;;;;;;62.25;14.38;;;9.00;99.90;;;;;;5048116;28;20381;-58
2024/01/31 12:03:45;;;;;;;113.30;17.33;;;9.00;99.90;;;;;;5063316;28;20147;-58
2024/01/31 12:06:16;;;;;;;59.88;13.77;;;9.00;99.90;;;;;;5047860;28;20029;-58
2024/01/31 12:08:46;;;;;;;49.85;12.73;;;9.00;99.90;;;;;;5063200;28;20033;-58
2024/01/31 12:11:13;;;;;;;68.70;14.98;;;9.00;99.90;;;;;;5046559;28;20030;-57
2024/01/31 12:13:39;;;;;;;57.25;12.90;;;9.00;99.90;;;;;;5079814;28;20052;-57
2024/01/31 12:16:05;;;;;;;39.25;12.85;;;9.00;99.90;;;;;;5079613;28;20464;-57
2024/01/31 12:18:30;;;;;;;49.83;13.57;;;9.00;99.90;;;;;;5079462;28;20025;-57
2024/01/31 12:21:01;;;;;;;51.90;13.30;;;9.00;99.90;;;;;;5046372;28;20052;-58
2024/01/31 12:23:26;;;;;;;55.90;12.52;;;9.00;99.90;;;;;;5063113;28;20021;-58
2024/01/31 12:25:52;;;;;;;54.80;11.73;;;9.00;99.90;;;;;;5046522;28;20022;-58
2024/01/31 12:28:18;;;;;;;61.15;14.05;;;9.00;99.90;;;;;;5062783;28;20056;-58
2024/01/31 12:30:43;;;;;;;56.78;13.45;;;9.10;99.90;;;;;;5052538;28;20044;-57
2024/01/31 12:33:09;;;;;;;126.35;17.60;;;9.10;99.90;;;;;;5054726;28;20057;-58
2024/01/31 12:35:35;;;;;;;122.35;18.60;;;9.10;99.90;;;;;;5068426;28;20033;-58